<?xml version="1.0" encoding="UTF-8" standalone="no" ?><gpx xmlns="http://www.topografix.com/GPX/1/1" xmlns:gpxx="http://www.garmin.com/xmlschemas/GpxExtensions/v3" xmlns:gpxtrkx="http://www.garmin.com/xmlschemas/TrackStatsExtension/v1" xmlns:wptx1="http://www.garmin.com/xmlschemas/WaypointExtension/v1" xmlns:gpxtpx="http://www.garmin.com/xmlschemas/TrackPointExtension/v1" creator="Oregon 700" version="1.1" xmlns:xsi="http://www.w3.org/2001/XMLSchema-instance" xsi:schemaLocation="http://www.topografix.com/GPX/1/1 http://www.topografix.com/GPX/1/1/gpx.xsd http://www.garmin.com/xmlschemas/GpxExtensions/v3 http://www8.garmin.com/xmlschemas/GpxExtensionsv3.xsd http://www.garmin.com/xmlschemas/TrackStatsExtension/v1 http://www8.garmin.com/xmlschemas/TrackStatsExtension.xsd http://www.garmin.com/xmlschemas/WaypointExtension/v1 http://www8.garmin.com/xmlschemas/WaypointExtensionv1.xsd http://www.garmin.com/xmlschemas/TrackPointExtension/v1 http://www.garmin.com/xmlschemas/TrackPointExtensionv1.xsd"><metadata><link href="http://www.garmin.com"><text>Garmin International</text></link><time>2021-12-01T17:54:01Z</time></metadata><trk><name>Current Track: 01 DEC 2021 10:00</name><extensions><gpxx:TrackExtension><gpxx:DisplayColor>Cyan</gpxx:DisplayColor></gpxx:TrackExtension><gpxtrkx:TrackStatsExtension><gpxtrkx:Distance>6159.000</gpxtrkx:Distance><gpxtrkx:TimerTime>10371</gpxtrkx:TimerTime><gpxtrkx:TotalElapsedTime>28422</gpxtrkx:TotalElapsedTime><gpxtrkx:MovingTime>7970</gpxtrkx:MovingTime><gpxtrkx:StoppedTime>2402</gpxtrkx:StoppedTime><gpxtrkx:MovingSpeed>0.773</gpxtrkx:MovingSpeed><gpxtrkx:MaxSpeed>1.478</gpxtrkx:MaxSpeed><gpxtrkx:MaxElevation>241.357</gpxtrkx:MaxElevation><gpxtrkx:MinElevation>136.608</gpxtrkx:MinElevation><gpxtrkx:Ascent>188.000</gpxtrkx:Ascent><gpxtrkx:Descent>184.983</gpxtrkx:Descent><gpxtrkx:AvgAscentRate>0.059</gpxtrkx:AvgAscentRate><gpxtrkx:MaxAscentRate>0.131</gpxtrkx:MaxAscentRate><gpxtrkx:AvgDescentRate>0.049</gpxtrkx:AvgDescentRate><gpxtrkx:MaxDescentRate>-0.280</gpxtrkx:MaxDescentRate><gpxtrkx:Calories>280</gpxtrkx:Calories></gpxtrkx:TrackStatsExtension></extensions><trkseg><trkpt lat="52.0546961948" lon="-1.8468421418"><ele>141.41</ele><time>2021-12-01T10:00:19Z</time></trkpt><trkpt lat="52.0546972007" lon="-1.8468515296"><ele>140.38</ele><time>2021-12-01T10:00:55Z</time></trkpt><trkpt lat="52.0546976198" lon="-1.8468604982"><ele>141.32</ele><time>2021-12-01T10:01:23Z</time></trkpt><trkpt lat="52.0547391102" lon="-1.8469589856"><ele>140.35</ele><time>2021-12-01T10:01:39Z</time></trkpt><trkpt lat="52.0546917524" lon="-1.8470706325"><ele>140.97</ele><time>2021-12-01T10:01:59Z</time></trkpt><trkpt lat="52.0546046644" lon="-1.8472417071"><ele>139.57</ele><time>2021-12-01T10:02:18Z</time></trkpt><trkpt lat="52.0546921715" lon="-1.8474243488"><ele>138.46</ele><time>2021-12-01T10:02:34Z</time></trkpt><trkpt lat="52.0547268726" lon="-1.8473281246"><ele>138.26</ele><time>2021-12-01T10:02:48Z</time></trkpt><trkpt lat="52.0548348315" lon="-1.8472047430"><ele>138.40</ele><time>2021-12-01T10:03:09Z</time></trkpt><trkpt lat="52.0549426228" lon="-1.8470023200"><ele>138.85</ele><time>2021-12-01T10:03:29Z</time></trkpt><trkpt lat="52.0550304651" lon="-1.8467906769"><ele>138.85</ele><time>2021-12-01T10:03:47Z</time></trkpt><trkpt lat="52.0551323891" lon="-1.8465292454"><ele>138.85</ele><time>2021-12-01T10:04:09Z</time></trkpt><trkpt lat="52.0551820099" lon="-1.8463483639"><ele>138.85</ele><time>2021-12-01T10:04:27Z</time></trkpt><trkpt lat="52.0552195609" lon="-1.8463093042"><ele>138.85</ele><time>2021-12-01T10:04:40Z</time></trkpt><trkpt lat="52.0552607998" lon="-1.8461895268"><ele>140.14</ele><time>2021-12-01T10:04:55Z</time></trkpt><trkpt lat="52.0552914776" lon="-1.8459491339"><ele>140.54</ele><time>2021-12-01T10:05:16Z</time></trkpt><trkpt lat="52.0553248376" lon="-1.8456635624"><ele>142.19</ele><time>2021-12-01T10:05:35Z</time></trkpt><trkpt lat="52.0554439444" lon="-1.8454913981"><ele>142.56</ele><time>2021-12-01T10:05:52Z</time></trkpt><trkpt lat="52.0555039588" lon="-1.8452980276"><ele>142.62</ele><time>2021-12-01T10:06:12Z</time></trkpt><trkpt lat="52.0555255003" lon="-1.8452750612"><ele>142.37</ele><time>2021-12-01T10:06:34Z</time></trkpt><trkpt lat="52.0555889513" lon="-1.8451118656"><ele>141.73</ele><time>2021-12-01T10:06:52Z</time></trkpt><trkpt lat="52.0556475408" lon="-1.8448648509"><ele>141.48</ele><time>2021-12-01T10:07:13Z</time></trkpt><trkpt lat="52.0557056274" lon="-1.8446650263"><ele>141.06</ele><time>2021-12-01T10:07:29Z</time></trkpt><trkpt lat="52.0558145922" lon="-1.8444073666"><ele>140.10</ele><time>2021-12-01T10:07:50Z</time></trkpt><trkpt lat="52.0559246466" lon="-1.8441999145"><ele>138.97</ele><time>2021-12-01T10:08:10Z</time></trkpt><trkpt lat="52.0559709147" lon="-1.8440095615"><ele>138.38</ele><time>2021-12-01T10:08:26Z</time></trkpt><trkpt lat="52.0559833199" lon="-1.8439848348"><ele>138.26</ele><time>2021-12-01T10:08:28Z</time></trkpt><trkpt lat="52.0560084656" lon="-1.8438240699"><ele>137.45</ele><time>2021-12-01T10:08:44Z</time></trkpt><trkpt lat="52.0560130756" lon="-1.8435257580"><ele>137.24</ele><time>2021-12-01T10:09:03Z</time></trkpt><trkpt lat="52.0560359582" lon="-1.8432938308"><ele>136.69</ele><time>2021-12-01T10:09:19Z</time></trkpt><trkpt lat="52.0560314320" lon="-1.8432579562"><ele>136.84</ele><time>2021-12-01T10:09:37Z</time></trkpt><trkpt lat="52.0560417417" lon="-1.8432272784"><ele>136.82</ele><time>2021-12-01T10:09:54Z</time></trkpt><trkpt lat="52.0560687315" lon="-1.8431900628"><ele>136.44</ele><time>2021-12-01T10:10:14Z</time></trkpt><trkpt lat="52.0560627803" lon="-1.8430733867"><ele>136.68</ele><time>2021-12-01T10:10:37Z</time></trkpt><trkpt lat="52.0560450945" lon="-1.8429282121"><ele>136.86</ele><time>2021-12-01T10:10:55Z</time></trkpt><trkpt lat="52.0560195297" lon="-1.8427941855"><ele>136.86</ele><time>2021-12-01T10:11:14Z</time></trkpt><trkpt lat="52.0559109002" lon="-1.8426179979"><ele>136.86</ele><time>2021-12-01T10:11:33Z</time></trkpt><trkpt lat="52.0558049530" lon="-1.8423844781"><ele>136.86</ele><time>2021-12-01T10:11:51Z</time></trkpt><trkpt lat="52.0556819905" lon="-1.8421664648"><ele>136.86</ele><time>2021-12-01T10:12:10Z</time></trkpt><trkpt lat="52.0555901248" lon="-1.8419582583"><ele>136.86</ele><time>2021-12-01T10:12:26Z</time></trkpt><trkpt lat="52.0554807410" lon="-1.8417663127"><ele>137.74</ele><time>2021-12-01T10:12:42Z</time></trkpt><trkpt lat="52.0554683357" lon="-1.8417384010"><ele>138.89</ele><time>2021-12-01T10:12:44Z</time></trkpt><trkpt lat="52.0553838462" lon="-1.8415615428"><ele>139.35</ele><time>2021-12-01T10:12:59Z</time></trkpt><trkpt lat="52.0552967582" lon="-1.8414040469"><ele>140.19</ele><time>2021-12-01T10:13:17Z</time></trkpt><trkpt lat="52.0552830119" lon="-1.8413437810"><ele>140.20</ele><time>2021-12-01T10:13:46Z</time></trkpt><trkpt lat="52.0552729536" lon="-1.8413302861"><ele>140.41</ele><time>2021-12-01T10:14:13Z</time></trkpt><trkpt lat="52.0551939122" lon="-1.8411581218"><ele>141.15</ele><time>2021-12-01T10:14:34Z</time></trkpt><trkpt lat="52.0551474765" lon="-1.8410294596"><ele>141.43</ele><time>2021-12-01T10:14:54Z</time></trkpt><trkpt lat="52.0550911501" lon="-1.8408967741"><ele>141.83</ele><time>2021-12-01T10:15:14Z</time></trkpt><trkpt lat="52.0550578739" lon="-1.8408398610"><ele>141.86</ele><time>2021-12-01T10:15:34Z</time></trkpt><trkpt lat="52.0550106838" lon="-1.8407067563"><ele>142.11</ele><time>2021-12-01T10:15:52Z</time></trkpt><trkpt lat="52.0549642481" lon="-1.8405910861"><ele>142.75</ele><time>2021-12-01T10:16:10Z</time></trkpt><trkpt lat="52.0549171418" lon="-1.8404864799"><ele>143.33</ele><time>2021-12-01T10:16:33Z</time></trkpt><trkpt lat="52.0548469853" lon="-1.8403235357"><ele>144.56</ele><time>2021-12-01T10:16:58Z</time></trkpt><trkpt lat="52.0548136253" lon="-1.8401782773"><ele>145.41</ele><time>2021-12-01T10:17:18Z</time></trkpt><trkpt lat="52.0547749847" lon="-1.8400293309"><ele>144.92</ele><time>2021-12-01T10:17:38Z</time></trkpt><trkpt lat="52.0547095221" lon="-1.8398321047"><ele>145.64</ele><time>2021-12-01T10:17:57Z</time></trkpt><trkpt lat="52.0546490047" lon="-1.8396292627"><ele>146.14</ele><time>2021-12-01T10:18:17Z</time></trkpt><trkpt lat="52.0545761660" lon="-1.8394722696"><ele>146.65</ele><time>2021-12-01T10:18:36Z</time></trkpt><trkpt lat="52.0545116253" lon="-1.8392849341"><ele>147.35</ele><time>2021-12-01T10:18:56Z</time></trkpt><trkpt lat="52.0544258785" lon="-1.8391308747"><ele>147.77</ele><time>2021-12-01T10:19:16Z</time></trkpt><trkpt lat="52.0543421432" lon="-1.8389654160"><ele>148.41</ele><time>2021-12-01T10:19:37Z</time></trkpt><trkpt lat="52.0542895049" lon="-1.8388661742"><ele>148.87</ele><time>2021-12-01T10:19:57Z</time></trkpt><trkpt lat="52.0542230364" lon="-1.8387266994"><ele>149.46</ele><time>2021-12-01T10:20:19Z</time></trkpt><trkpt lat="52.0541439112" lon="-1.8385582231"><ele>150.32</ele><time>2021-12-01T10:20:39Z</time></trkpt><trkpt lat="52.0540764369" lon="-1.8384356797"><ele>151.33</ele><time>2021-12-01T10:21:00Z</time></trkpt><trkpt lat="52.0540244691" lon="-1.8383311573"><ele>152.60</ele><time>2021-12-01T10:21:26Z</time></trkpt><trkpt lat="52.0539561566" lon="-1.8382040039"><ele>153.34</ele><time>2021-12-01T10:21:46Z</time></trkpt><trkpt lat="52.0539367106" lon="-1.8381484319"><ele>150.37</ele><time>2021-12-01T10:22:05Z</time></trkpt><trkpt lat="52.0539325196" lon="-1.8381419778"><ele>153.98</ele><time>2021-12-01T10:22:10Z</time></trkpt><trkpt lat="52.0539165940" lon="-1.8381120544"><ele>153.24</ele><time>2021-12-01T10:22:33Z</time></trkpt><trkpt lat="52.0538432524" lon="-1.8379998207"><ele>155.70</ele><time>2021-12-01T10:22:54Z</time></trkpt><trkpt lat="52.0537642110" lon="-1.8378012534"><ele>156.73</ele><time>2021-12-01T10:23:11Z</time></trkpt><trkpt lat="52.0536458585" lon="-1.8375599384"><ele>158.12</ele><time>2021-12-01T10:23:30Z</time></trkpt><trkpt lat="52.0535373129" lon="-1.8373730220"><ele>159.24</ele><time>2021-12-01T10:23:48Z</time></trkpt><trkpt lat="52.0534400828" lon="-1.8372533284"><ele>160.35</ele><time>2021-12-01T10:24:07Z</time></trkpt><trkpt lat="52.0533577725" lon="-1.8371526618"><ele>161.19</ele><time>2021-12-01T10:24:26Z</time></trkpt><trkpt lat="52.0533182938" lon="-1.8371322937"><ele>161.41</ele><time>2021-12-01T10:24:45Z</time></trkpt><trkpt lat="52.0532828383" lon="-1.8371358979"><ele>162.06</ele><time>2021-12-01T10:25:12Z</time></trkpt><trkpt lat="52.0531833451" lon="-1.8370473851"><ele>162.32</ele><time>2021-12-01T10:25:37Z</time></trkpt><trkpt lat="52.0531031303" lon="-1.8370001111"><ele>163.36</ele><time>2021-12-01T10:25:58Z</time></trkpt><trkpt lat="52.0530178025" lon="-1.8370122649"><ele>164.10</ele><time>2021-12-01T10:26:28Z</time></trkpt><trkpt lat="52.0529624820" lon="-1.8369171303"><ele>164.91</ele><time>2021-12-01T10:26:45Z</time></trkpt><trkpt lat="52.0528861228" lon="-1.8368751369"><ele>165.68</ele><time>2021-12-01T10:27:14Z</time></trkpt><trkpt lat="52.0527582988" lon="-1.8368012086"><ele>166.99</ele><time>2021-12-01T10:27:30Z</time></trkpt><trkpt lat="52.0526425447" lon="-1.8367178924"><ele>168.69</ele><time>2021-12-01T10:27:46Z</time></trkpt><trkpt lat="52.0525911637" lon="-1.8366826046"><ele>169.97</ele><time>2021-12-01T10:28:03Z</time></trkpt><trkpt lat="52.0524855517" lon="-1.8365853745"><ele>170.99</ele><time>2021-12-01T10:28:22Z</time></trkpt><trkpt lat="52.0523873158" lon="-1.8365232646"><ele>173.05</ele><time>2021-12-01T10:28:41Z</time></trkpt><trkpt lat="52.0523041673" lon="-1.8364095222"><ele>174.71</ele><time>2021-12-01T10:29:02Z</time></trkpt><trkpt lat="52.0522611681" lon="-1.8362936005"><ele>175.88</ele><time>2021-12-01T10:29:18Z</time></trkpt><trkpt lat="52.0522098709" lon="-1.8361650221"><ele>176.62</ele><time>2021-12-01T10:29:37Z</time></trkpt><trkpt lat="52.0521434024" lon="-1.8360054307"><ele>177.97</ele><time>2021-12-01T10:29:54Z</time></trkpt><trkpt lat="52.0521345176" lon="-1.8359545525"><ele>178.97</ele><time>2021-12-01T10:30:15Z</time></trkpt><trkpt lat="52.0521354396" lon="-1.8358613458"><ele>179.53</ele><time>2021-12-01T10:30:33Z</time></trkpt><trkpt lat="52.0521567296" lon="-1.8357023410"><ele>180.29</ele><time>2021-12-01T10:30:51Z</time></trkpt><trkpt lat="52.0521747507" lon="-1.8356432486"><ele>180.50</ele><time>2021-12-01T10:31:10Z</time></trkpt><trkpt lat="52.0521668717" lon="-1.8356046081"><ele>181.01</ele><time>2021-12-01T10:31:32Z</time></trkpt><trkpt lat="52.0521505270" lon="-1.8355611898"><ele>180.94</ele><time>2021-12-01T10:31:56Z</time></trkpt><trkpt lat="52.0521635190" lon="-1.8354423344"><ele>181.72</ele><time>2021-12-01T10:32:18Z</time></trkpt><trkpt lat="52.0522307418" lon="-1.8352292664"><ele>180.99</ele><time>2021-12-01T10:32:36Z</time></trkpt><trkpt lat="52.0522619225" lon="-1.8350830022"><ele>181.62</ele><time>2021-12-01T10:32:51Z</time></trkpt><trkpt lat="52.0523019880" lon="-1.8349634763"><ele>182.43</ele><time>2021-12-01T10:33:06Z</time></trkpt><trkpt lat="52.0523626730" lon="-1.8347525038"><ele>182.74</ele><time>2021-12-01T10:33:23Z</time></trkpt><trkpt lat="52.0523956139" lon="-1.8346433714"><ele>182.49</ele><time>2021-12-01T10:33:42Z</time></trkpt><trkpt lat="52.0524603222" lon="-1.8344501685"><ele>182.18</ele><time>2021-12-01T10:33:59Z</time></trkpt><trkpt lat="52.0524832886" lon="-1.8343980331"><ele>182.43</ele><time>2021-12-01T10:34:19Z</time></trkpt><trkpt lat="52.0525268745" lon="-1.8342782557"><ele>182.11</ele><time>2021-12-01T10:34:28Z</time></trkpt><trkpt lat="52.0526541956" lon="-1.8340505194"><ele>184.66</ele><time>2021-12-01T10:34:47Z</time></trkpt><trkpt lat="52.0527353324" lon="-1.8339276407"><ele>186.24</ele><time>2021-12-01T10:35:03Z</time></trkpt><trkpt lat="52.0527476538" lon="-1.8339149840"><ele>187.50</ele><time>2021-12-01T10:35:23Z</time></trkpt><trkpt lat="52.0527998731" lon="-1.8338358589"><ele>187.96</ele><time>2021-12-01T10:35:42Z</time></trkpt><trkpt lat="52.0528282039" lon="-1.8337275647"><ele>188.70</ele><time>2021-12-01T10:35:59Z</time></trkpt><trkpt lat="52.0529222488" lon="-1.8335811328"><ele>188.79</ele><time>2021-12-01T10:36:18Z</time></trkpt><trkpt lat="52.0529345702" lon="-1.8334608525"><ele>188.83</ele><time>2021-12-01T10:36:35Z</time></trkpt><trkpt lat="52.0529396832" lon="-1.8334735930"><ele>189.08</ele><time>2021-12-01T10:37:09Z</time></trkpt><trkpt lat="52.0529551059" lon="-1.8334543146"><ele>189.08</ele><time>2021-12-01T10:37:12Z</time></trkpt><trkpt lat="52.0529809222" lon="-1.8334161770"><ele>189.08</ele><time>2021-12-01T10:37:15Z</time></trkpt><trkpt lat="52.0530727878" lon="-1.8333994970"><ele>189.46</ele><time>2021-12-01T10:37:32Z</time></trkpt><trkpt lat="52.0530663338" lon="-1.8334154226"><ele>189.24</ele><time>2021-12-01T10:37:42Z</time></trkpt><trkpt lat="52.0530574489" lon="-1.8335553166"><ele>188.25</ele><time>2021-12-01T10:37:58Z</time></trkpt><trkpt lat="52.0530570298" lon="-1.8335369602"><ele>187.90</ele><time>2021-12-01T10:38:02Z</time></trkpt><trkpt lat="52.0530587062" lon="-1.8334661331"><ele>187.92</ele><time>2021-12-01T10:38:06Z</time></trkpt><trkpt lat="52.0530502405" lon="-1.8333908636"><ele>188.40</ele><time>2021-12-01T10:38:11Z</time></trkpt><trkpt lat="52.0530261006" lon="-1.8332002591"><ele>189.60</ele><time>2021-12-01T10:38:26Z</time></trkpt><trkpt lat="52.0531041361" lon="-1.8329316191"><ele>191.85</ele><time>2021-12-01T10:38:46Z</time></trkpt><trkpt lat="52.0531099197" lon="-1.8329309486"><ele>191.40</ele><time>2021-12-01T10:38:59Z</time></trkpt><trkpt lat="52.0531431120" lon="-1.8328265101"><ele>191.93</ele><time>2021-12-01T10:39:05Z</time></trkpt><trkpt lat="52.0532636438" lon="-1.8324968498"><ele>191.82</ele><time>2021-12-01T10:39:25Z</time></trkpt><trkpt lat="52.0534188766" lon="-1.8321363442"><ele>192.10</ele><time>2021-12-01T10:39:46Z</time></trkpt><trkpt lat="52.0535595249" lon="-1.8317836337"><ele>193.89</ele><time>2021-12-01T10:40:08Z</time></trkpt><trkpt lat="52.0535755344" lon="-1.8316609226"><ele>194.25</ele><time>2021-12-01T10:40:15Z</time></trkpt><trkpt lat="52.0535229798" lon="-1.8313625269"><ele>196.56</ele><time>2021-12-01T10:40:34Z</time></trkpt><trkpt lat="52.0535172801" lon="-1.8313105591"><ele>198.16</ele><time>2021-12-01T10:40:37Z</time></trkpt><trkpt lat="52.0534762088" lon="-1.8310784642"><ele>197.92</ele><time>2021-12-01T10:40:52Z</time></trkpt><trkpt lat="52.0534511469" lon="-1.8309438508"><ele>198.27</ele><time>2021-12-01T10:41:06Z</time></trkpt><trkpt lat="52.0534538291" lon="-1.8309302721"><ele>198.10</ele><time>2021-12-01T10:41:15Z</time></trkpt><trkpt lat="52.0535235666" lon="-1.8309166934"><ele>197.68</ele><time>2021-12-01T10:41:25Z</time></trkpt><trkpt lat="52.0535462815" lon="-1.8309215549"><ele>197.61</ele><time>2021-12-01T10:41:27Z</time></trkpt><trkpt lat="52.0537127461" lon="-1.8309707567"><ele>196.25</ele><time>2021-12-01T10:41:45Z</time></trkpt><trkpt lat="52.0537348744" lon="-1.8308988400"><ele>194.25</ele><time>2021-12-01T10:42:04Z</time></trkpt><trkpt lat="52.0537111536" lon="-1.8308048788"><ele>195.28</ele><time>2021-12-01T10:42:23Z</time></trkpt><trkpt lat="52.0537113212" lon="-1.8307695910"><ele>196.02</ele><time>2021-12-01T10:42:35Z</time></trkpt><trkpt lat="52.0536691602" lon="-1.8307164498"><ele>196.92</ele><time>2021-12-01T10:42:56Z</time></trkpt><trkpt lat="52.0535968244" lon="-1.8307233229"><ele>197.85</ele><time>2021-12-01T10:43:20Z</time></trkpt><trkpt lat="52.0535388216" lon="-1.8307050504"><ele>200.00</ele><time>2021-12-01T10:43:41Z</time></trkpt><trkpt lat="52.0534322876" lon="-1.8308275938"><ele>199.89</ele><time>2021-12-01T10:44:02Z</time></trkpt><trkpt lat="52.0533902105" lon="-1.8308543321"><ele>200.46</ele><time>2021-12-01T10:44:17Z</time></trkpt><trkpt lat="52.0533864386" lon="-1.8308498897"><ele>200.94</ele><time>2021-12-01T10:44:42Z</time></trkpt><trkpt lat="52.0533830859" lon="-1.8308161106"><ele>200.72</ele><time>2021-12-01T10:45:05Z</time></trkpt><trkpt lat="52.0533632208" lon="-1.8308327068"><ele>200.70</ele><time>2021-12-01T10:45:32Z</time></trkpt><trkpt lat="52.0533621311" lon="-1.8308285158"><ele>198.98</ele><time>2021-12-01T10:45:40Z</time></trkpt><trkpt lat="52.0533581916" lon="-1.8308304437"><ele>201.44</ele><time>2021-12-01T10:46:05Z</time></trkpt><trkpt lat="52.0533795655" lon="-1.8308097403"><ele>202.85</ele><time>2021-12-01T10:46:29Z</time></trkpt><trkpt lat="52.0533845946" lon="-1.8307671603"><ele>202.85</ele><time>2021-12-01T10:46:59Z</time></trkpt><trkpt lat="52.0533966646" lon="-1.8307765480"><ele>202.85</ele><time>2021-12-01T10:47:29Z</time></trkpt><trkpt lat="52.0533946529" lon="-1.8308503926"><ele>202.85</ele><time>2021-12-01T10:47:54Z</time></trkpt><trkpt lat="52.0533849299" lon="-1.8308695033"><ele>202.85</ele><time>2021-12-01T10:48:31Z</time></trkpt><trkpt lat="52.0533814933" lon="-1.8308721855"><ele>202.85</ele><time>2021-12-01T10:48:55Z</time></trkpt><trkpt lat="52.0533903781" lon="-1.8308682460"><ele>202.85</ele><time>2021-12-01T10:49:20Z</time></trkpt><trkpt lat="52.0533770509" lon="-1.8308599479"><ele>202.85</ele><time>2021-12-01T10:49:47Z</time></trkpt><trkpt lat="52.0533833373" lon="-1.8308432680"><ele>202.85</ele><time>2021-12-01T10:50:15Z</time></trkpt><trkpt lat="52.0533883665" lon="-1.8308210559"><ele>202.85</ele><time>2021-12-01T10:50:49Z</time></trkpt><trkpt lat="52.0533999335" lon="-1.8308133446"><ele>202.85</ele><time>2021-12-01T10:51:20Z</time></trkpt><trkpt lat="52.0534224808" lon="-1.8308258336"><ele>202.85</ele><time>2021-12-01T10:51:50Z</time></trkpt><trkpt lat="52.0533840917" lon="-1.8308569305"><ele>202.85</ele><time>2021-12-01T10:52:27Z</time></trkpt><trkpt lat="52.0533848461" lon="-1.8308601994"><ele>202.85</ele><time>2021-12-01T10:53:04Z</time></trkpt><trkpt lat="52.0533896238" lon="-1.8308364786"><ele>202.85</ele><time>2021-12-01T10:53:29Z</time></trkpt><trkpt lat="52.0533980057" lon="-1.8308456987"><ele>202.85</ele><time>2021-12-01T10:53:55Z</time></trkpt><trkpt lat="52.0533815771" lon="-1.8308290187"><ele>202.85</ele><time>2021-12-01T10:54:25Z</time></trkpt><trkpt lat="52.0533916354" lon="-1.8308043759"><ele>202.85</ele><time>2021-12-01T10:55:03Z</time></trkpt><trkpt lat="52.0534006879" lon="-1.8308166135"><ele>202.85</ele><time>2021-12-01T10:55:32Z</time></trkpt><trkpt lat="52.0534005202" lon="-1.8308401667"><ele>202.85</ele><time>2021-12-01T10:55:56Z</time></trkpt><trkpt lat="52.0533868577" lon="-1.8308456149"><ele>202.85</ele><time>2021-12-01T10:56:22Z</time></trkpt><trkpt lat="52.0533752907" lon="-1.8308532424"><ele>202.85</ele><time>2021-12-01T10:56:53Z</time></trkpt><trkpt lat="52.0533743687" lon="-1.8308529072"><ele>202.85</ele><time>2021-12-01T10:57:27Z</time></trkpt><trkpt lat="52.0533949882" lon="-1.8308258336"><ele>202.85</ele><time>2021-12-01T10:57:52Z</time></trkpt><trkpt lat="52.0534006041" lon="-1.8308063038"><ele>202.85</ele><time>2021-12-01T10:58:26Z</time></trkpt><trkpt lat="52.0534029510" lon="-1.8308094051"><ele>202.85</ele><time>2021-12-01T10:58:51Z</time></trkpt><trkpt lat="52.0533959940" lon="-1.8308131769"><ele>202.85</ele><time>2021-12-01T10:59:23Z</time></trkpt><trkpt lat="52.0533921383" lon="-1.8308160268"><ele>202.85</ele><time>2021-12-01T10:59:53Z</time></trkpt><trkpt lat="52.0533724409" lon="-1.8307925574"><ele>202.85</ele><time>2021-12-01T11:00:17Z</time></trkpt><trkpt lat="52.0533748716" lon="-1.8308285158"><ele>202.85</ele><time>2021-12-01T11:00:46Z</time></trkpt><trkpt lat="52.0533867739" lon="-1.8308139313"><ele>202.85</ele><time>2021-12-01T11:01:13Z</time></trkpt><trkpt lat="52.0533857681" lon="-1.8308659829"><ele>202.85</ele><time>2021-12-01T11:01:41Z</time></trkpt><trkpt lat="52.0533814095" lon="-1.8308662344"><ele>202.85</ele><time>2021-12-01T11:02:07Z</time></trkpt><trkpt lat="52.0533818286" lon="-1.8308431003"><ele>202.85</ele><time>2021-12-01T11:02:33Z</time></trkpt><trkpt lat="52.0533824153" lon="-1.8308452796"><ele>202.85</ele><time>2021-12-01T11:02:58Z</time></trkpt><trkpt lat="52.0533792302" lon="-1.8308293540"><ele>202.85</ele><time>2021-12-01T11:03:23Z</time></trkpt><trkpt lat="52.0533564314" lon="-1.8308537453"><ele>202.85</ele><time>2021-12-01T11:03:49Z</time></trkpt><trkpt lat="52.0533531625" lon="-1.8308636360"><ele>202.85</ele><time>2021-12-01T11:04:15Z</time></trkpt><trkpt lat="52.0533389132" lon="-1.8308442738"><ele>202.85</ele><time>2021-12-01T11:04:43Z</time></trkpt><trkpt lat="52.0533612929" lon="-1.8307541683"><ele>202.85</ele><time>2021-12-01T11:05:03Z</time></trkpt><trkpt lat="52.0533723570" lon="-1.8305673357"><ele>202.85</ele><time>2021-12-01T11:05:22Z</time></trkpt><trkpt lat="52.0533539169" lon="-1.8302827701"><ele>205.52</ele><time>2021-12-01T11:05:34Z</time></trkpt><trkpt lat="52.0533263404" lon="-1.8301075045"><ele>206.71</ele><time>2021-12-01T11:05:55Z</time></trkpt><trkpt lat="52.0534125902" lon="-1.8298241962"><ele>206.49</ele><time>2021-12-01T11:06:13Z</time></trkpt><trkpt lat="52.0535400789" lon="-1.8296603300"><ele>205.97</ele><time>2021-12-01T11:06:29Z</time></trkpt><trkpt lat="52.0536229759" lon="-1.8295409717"><ele>205.56</ele><time>2021-12-01T11:06:44Z</time></trkpt><trkpt lat="52.0536744408" lon="-1.8293935340"><ele>205.56</ele><time>2021-12-01T11:07:03Z</time></trkpt><trkpt lat="52.0537735987" lon="-1.8292239681"><ele>205.56</ele><time>2021-12-01T11:07:24Z</time></trkpt><trkpt lat="52.0537758619" lon="-1.8292205315"><ele>202.23</ele><time>2021-12-01T11:07:33Z</time></trkpt><trkpt lat="52.0537761133" lon="-1.8292202801"><ele>202.23</ele><time>2021-12-01T11:07:34Z</time></trkpt><trkpt lat="52.0537599362" lon="-1.8292501196"><ele>201.98</ele><time>2021-12-01T11:07:56Z</time></trkpt><trkpt lat="52.0535985846" lon="-1.8294297438"><ele>202.62</ele><time>2021-12-01T11:08:16Z</time></trkpt><trkpt lat="52.0535228122" lon="-1.8295776844"><ele>203.72</ele><time>2021-12-01T11:08:33Z</time></trkpt><trkpt lat="52.0534165297" lon="-1.8297737371"><ele>204.58</ele><time>2021-12-01T11:08:52Z</time></trkpt><trkpt lat="52.0533936471" lon="-1.8299572170"><ele>205.44</ele><time>2021-12-01T11:09:12Z</time></trkpt><trkpt lat="52.0534670725" lon="-1.8299754895"><ele>204.61</ele><time>2021-12-01T11:09:28Z</time></trkpt><trkpt lat="52.0534456149" lon="-1.8300471548"><ele>204.76</ele><time>2021-12-01T11:09:52Z</time></trkpt><trkpt lat="52.0533844270" lon="-1.8300561234"><ele>204.68</ele><time>2021-12-01T11:10:07Z</time></trkpt><trkpt lat="52.0533659030" lon="-1.8300530221"><ele>204.86</ele><time>2021-12-01T11:10:09Z</time></trkpt><trkpt lat="52.0533132646" lon="-1.8300955184"><ele>205.96</ele><time>2021-12-01T11:10:23Z</time></trkpt><trkpt lat="52.0533754583" lon="-1.8301396910"><ele>205.64</ele><time>2021-12-01T11:10:41Z</time></trkpt><trkpt lat="52.0534023643" lon="-1.8302034773"><ele>205.08</ele><time>2021-12-01T11:10:56Z</time></trkpt><trkpt lat="52.0534735266" lon="-1.8303386774"><ele>203.92</ele><time>2021-12-01T11:11:15Z</time></trkpt><trkpt lat="52.0535647217" lon="-1.8304311298"><ele>202.96</ele><time>2021-12-01T11:11:26Z</time></trkpt><trkpt lat="52.0535783842" lon="-1.8304594606"><ele>202.72</ele><time>2021-12-01T11:11:28Z</time></trkpt><trkpt lat="52.0535922982" lon="-1.8304884620"><ele>202.48</ele><time>2021-12-01T11:11:30Z</time></trkpt><trkpt lat="52.0536389016" lon="-1.8306370731"><ele>199.97</ele><time>2021-12-01T11:11:47Z</time></trkpt><trkpt lat="52.0536570065" lon="-1.8307094090"><ele>199.46</ele><time>2021-12-01T11:12:11Z</time></trkpt><trkpt lat="52.0537243970" lon="-1.8307449482"><ele>196.45</ele><time>2021-12-01T11:12:30Z</time></trkpt><trkpt lat="52.0538404863" lon="-1.8307385780"><ele>196.58</ele><time>2021-12-01T11:12:50Z</time></trkpt><trkpt lat="52.0539655443" lon="-1.8306706846"><ele>194.98</ele><time>2021-12-01T11:13:14Z</time></trkpt><trkpt lat="52.0541367028" lon="-1.8305945769"><ele>192.74</ele><time>2021-12-01T11:13:40Z</time></trkpt><trkpt lat="52.0542487688" lon="-1.8305516616"><ele>191.76</ele><time>2021-12-01T11:13:59Z</time></trkpt><trkpt lat="52.0543575659" lon="-1.8305468839"><ele>190.98</ele><time>2021-12-01T11:14:21Z</time></trkpt><trkpt lat="52.0545065962" lon="-1.8305626418"><ele>189.51</ele><time>2021-12-01T11:14:45Z</time></trkpt><trkpt lat="52.0546010602" lon="-1.8305656593"><ele>187.64</ele><time>2021-12-01T11:15:07Z</time></trkpt><trkpt lat="52.0547030680" lon="-1.8305282760"><ele>186.20</ele><time>2021-12-01T11:15:26Z</time></trkpt><trkpt lat="52.0547144674" lon="-1.8303945009"><ele>184.43</ele><time>2021-12-01T11:15:45Z</time></trkpt><trkpt lat="52.0546489209" lon="-1.8301910721"><ele>185.59</ele><time>2021-12-01T11:16:07Z</time></trkpt><trkpt lat="52.0546002220" lon="-1.8300170638"><ele>187.33</ele><time>2021-12-01T11:16:29Z</time></trkpt><trkpt lat="52.0545449015" lon="-1.8298489228"><ele>188.15</ele><time>2021-12-01T11:16:39Z</time></trkpt><trkpt lat="52.0544711407" lon="-1.8296594918"><ele>189.31</ele><time>2021-12-01T11:16:57Z</time></trkpt><trkpt lat="52.0543751679" lon="-1.8294802867"><ele>190.54</ele><time>2021-12-01T11:17:17Z</time></trkpt><trkpt lat="52.0543139800" lon="-1.8293174263"><ele>191.59</ele><time>2021-12-01T11:17:34Z</time></trkpt><trkpt lat="52.0542531274" lon="-1.8292077910"><ele>192.74</ele><time>2021-12-01T11:17:55Z</time></trkpt><trkpt lat="52.0541941188" lon="-1.8290834036"><ele>193.01</ele><time>2021-12-01T11:18:16Z</time></trkpt><trkpt lat="52.0541616809" lon="-1.8290106487"><ele>194.35</ele><time>2021-12-01T11:18:37Z</time></trkpt><trkpt lat="52.0540816337" lon="-1.8288441841"><ele>195.27</ele><time>2021-12-01T11:18:57Z</time></trkpt><trkpt lat="52.0540041011" lon="-1.8287272565"><ele>196.38</ele><time>2021-12-01T11:19:17Z</time></trkpt><trkpt lat="52.0539688971" lon="-1.8286907114"><ele>197.12</ele><time>2021-12-01T11:19:38Z</time></trkpt><trkpt lat="52.0539775304" lon="-1.8285897933"><ele>196.96</ele><time>2021-12-01T11:19:53Z</time></trkpt><trkpt lat="52.0539947972" lon="-1.8285870273"><ele>196.67</ele><time>2021-12-01T11:19:55Z</time></trkpt><trkpt lat="52.0540349465" lon="-1.8285925593"><ele>197.78</ele><time>2021-12-01T11:20:11Z</time></trkpt><trkpt lat="52.0539956354" lon="-1.8285319582"><ele>197.77</ele><time>2021-12-01T11:20:21Z</time></trkpt><trkpt lat="52.0539856609" lon="-1.8284571916"><ele>197.78</ele><time>2021-12-01T11:20:25Z</time></trkpt><trkpt lat="52.0539870020" lon="-1.8283517472"><ele>197.82</ele><time>2021-12-01T11:20:32Z</time></trkpt><trkpt lat="52.0539989881" lon="-1.8281081691"><ele>201.00</ele><time>2021-12-01T11:20:49Z</time></trkpt><trkpt lat="52.0540081244" lon="-1.8279808480"><ele>202.55</ele><time>2021-12-01T11:21:11Z</time></trkpt><trkpt lat="52.0540196914" lon="-1.8277981225"><ele>203.93</ele><time>2021-12-01T11:21:32Z</time></trkpt><trkpt lat="52.0540186856" lon="-1.8276603241"><ele>205.48</ele><time>2021-12-01T11:21:56Z</time></trkpt><trkpt lat="52.0539817214" lon="-1.8274018262"><ele>207.14</ele><time>2021-12-01T11:22:18Z</time></trkpt><trkpt lat="52.0539709087" lon="-1.8272416480"><ele>208.36</ele><time>2021-12-01T11:22:42Z</time></trkpt><trkpt lat="52.0539453439" lon="-1.8271519616"><ele>210.18</ele><time>2021-12-01T11:23:04Z</time></trkpt><trkpt lat="52.0539345313" lon="-1.8271279056"><ele>210.32</ele><time>2021-12-01T11:23:08Z</time></trkpt><trkpt lat="52.0539461821" lon="-1.8269339483"><ele>212.41</ele><time>2021-12-01T11:23:31Z</time></trkpt><trkpt lat="52.0539221261" lon="-1.8269030191"><ele>212.92</ele><time>2021-12-01T11:23:52Z</time></trkpt><trkpt lat="52.0539954677" lon="-1.8267198745"><ele>214.52</ele><time>2021-12-01T11:24:11Z</time></trkpt><trkpt lat="52.0539949648" lon="-1.8266513105"><ele>215.55</ele><time>2021-12-01T11:24:27Z</time></trkpt><trkpt lat="52.0539514627" lon="-1.8264964130"><ele>217.58</ele><time>2021-12-01T11:24:49Z</time></trkpt><trkpt lat="52.0539096370" lon="-1.8264140189"><ele>219.05</ele><time>2021-12-01T11:25:13Z</time></trkpt><trkpt lat="52.0538626984" lon="-1.8263275176"><ele>220.29</ele><time>2021-12-01T11:25:32Z</time></trkpt><trkpt lat="52.0537918713" lon="-1.8262297008"><ele>222.47</ele><time>2021-12-01T11:25:54Z</time></trkpt><trkpt lat="52.0537463576" lon="-1.8261403497"><ele>223.88</ele><time>2021-12-01T11:26:18Z</time></trkpt><trkpt lat="52.0536146779" lon="-1.8260282837"><ele>224.85</ele><time>2021-12-01T11:26:40Z</time></trkpt><trkpt lat="52.0535389055" lon="-1.8260217458"><ele>226.72</ele><time>2021-12-01T11:27:00Z</time></trkpt><trkpt lat="52.0533981733" lon="-1.8259845302"><ele>228.22</ele><time>2021-12-01T11:27:22Z</time></trkpt><trkpt lat="52.0532324631" lon="-1.8259792496"><ele>231.13</ele><time>2021-12-01T11:27:49Z</time></trkpt><trkpt lat="52.0532281045" lon="-1.8259976897"><ele>231.76</ele><time>2021-12-01T11:28:14Z</time></trkpt><trkpt lat="52.0532011148" lon="-1.8259880506"><ele>232.13</ele><time>2021-12-01T11:28:21Z</time></trkpt><trkpt lat="52.0531791542" lon="-1.8259859551"><ele>232.21</ele><time>2021-12-01T11:28:25Z</time></trkpt><trkpt lat="52.0531197265" lon="-1.8259416148"><ele>232.35</ele><time>2021-12-01T11:28:30Z</time></trkpt><trkpt lat="52.0530520845" lon="-1.8259460572"><ele>233.83</ele><time>2021-12-01T11:28:44Z</time></trkpt><trkpt lat="52.0529066585" lon="-1.8258787505"><ele>235.80</ele><time>2021-12-01T11:29:07Z</time></trkpt><trkpt lat="52.0528629050" lon="-1.8258728832"><ele>236.51</ele><time>2021-12-01T11:29:23Z</time></trkpt><trkpt lat="52.0527357515" lon="-1.8258498330"><ele>238.25</ele><time>2021-12-01T11:29:44Z</time></trkpt><trkpt lat="52.0526919980" lon="-1.8258536886"><ele>239.22</ele><time>2021-12-01T11:30:06Z</time></trkpt><trkpt lat="52.0526947640" lon="-1.8259240966"><ele>239.38</ele><time>2021-12-01T11:30:38Z</time></trkpt><trkpt lat="52.0526879746" lon="-1.8259116914"><ele>239.31</ele><time>2021-12-01T11:31:03Z</time></trkpt><trkpt lat="52.0526842028" lon="-1.8259095959"><ele>239.05</ele><time>2021-12-01T11:31:05Z</time></trkpt><trkpt lat="52.0527177304" lon="-1.8258404452"><ele>239.21</ele><time>2021-12-01T11:31:26Z</time></trkpt><trkpt lat="52.0527581312" lon="-1.8258089293"><ele>239.49</ele><time>2021-12-01T11:31:48Z</time></trkpt><trkpt lat="52.0528080035" lon="-1.8256642576"><ele>240.24</ele><time>2021-12-01T11:32:12Z</time></trkpt><trkpt lat="52.0528238453" lon="-1.8255055044"><ele>240.69</ele><time>2021-12-01T11:32:32Z</time></trkpt><trkpt lat="52.0528032258" lon="-1.8252275605"><ele>241.52</ele><time>2021-12-01T11:32:52Z</time></trkpt><trkpt lat="52.0527903177" lon="-1.8250471819"><ele>240.92</ele><time>2021-12-01T11:33:17Z</time></trkpt><trkpt lat="52.0527550299" lon="-1.8247927073"><ele>240.86</ele><time>2021-12-01T11:33:42Z</time></trkpt><trkpt lat="52.0527501684" lon="-1.8245850876"><ele>240.97</ele><time>2021-12-01T11:34:05Z</time></trkpt><trkpt lat="52.0527488273" lon="-1.8242804892"><ele>240.96</ele><time>2021-12-01T11:34:30Z</time></trkpt><trkpt lat="52.0527640823" lon="-1.8240305409"><ele>240.96</ele><time>2021-12-01T11:34:52Z</time></trkpt><trkpt lat="52.0528052375" lon="-1.8237781618"><ele>240.96</ele><time>2021-12-01T11:35:18Z</time></trkpt><trkpt lat="52.0528550260" lon="-1.8235748168"><ele>240.96</ele><time>2021-12-01T11:35:39Z</time></trkpt><trkpt lat="52.0529671758" lon="-1.8234227691"><ele>240.96</ele><time>2021-12-01T11:36:01Z</time></trkpt><trkpt lat="52.0530794095" lon="-1.8233003095"><ele>240.96</ele><time>2021-12-01T11:36:23Z</time></trkpt><trkpt lat="52.0531795733" lon="-1.8231868185"><ele>240.96</ele><time>2021-12-01T11:36:44Z</time></trkpt><trkpt lat="52.0532571897" lon="-1.8230574019"><ele>240.96</ele><time>2021-12-01T11:37:08Z</time></trkpt><trkpt lat="52.0532570221" lon="-1.8230454158"><ele>235.87</ele><time>2021-12-01T11:37:12Z</time></trkpt><trkpt lat="52.0532594528" lon="-1.8230448291"><ele>236.09</ele><time>2021-12-01T11:37:13Z</time></trkpt><trkpt lat="52.0532258414" lon="-1.8229995668"><ele>235.46</ele><time>2021-12-01T11:37:31Z</time></trkpt><trkpt lat="52.0532153640" lon="-1.8229536340"><ele>233.08</ele><time>2021-12-01T11:37:49Z</time></trkpt><trkpt lat="52.0532001089" lon="-1.8229389656"><ele>236.11</ele><time>2021-12-01T11:37:56Z</time></trkpt><trkpt lat="52.0532037970" lon="-1.8229512032"><ele>236.69</ele><time>2021-12-01T11:38:24Z</time></trkpt><trkpt lat="52.0531932358" lon="-1.8229492754"><ele>237.60</ele><time>2021-12-01T11:38:48Z</time></trkpt><trkpt lat="52.0531939901" lon="-1.8229493592"><ele>233.95</ele><time>2021-12-01T11:38:53Z</time></trkpt><trkpt lat="52.0532522444" lon="-1.8229609262"><ele>237.18</ele><time>2021-12-01T11:39:04Z</time></trkpt><trkpt lat="52.0532593690" lon="-1.8229675479"><ele>242.05</ele><time>2021-12-01T11:39:06Z</time></trkpt><trkpt lat="52.0532643143" lon="-1.8229717389"><ele>242.07</ele><time>2021-12-01T11:39:07Z</time></trkpt><trkpt lat="52.0532947406" lon="-1.8229927775"><ele>239.05</ele><time>2021-12-01T11:39:11Z</time></trkpt><trkpt lat="52.0533498935" lon="-1.8229465093"><ele>235.87</ele><time>2021-12-01T11:39:17Z</time></trkpt><trkpt lat="52.0534862671" lon="-1.8227825593"><ele>232.54</ele><time>2021-12-01T11:39:30Z</time></trkpt><trkpt lat="52.0535353851" lon="-1.8227227964"><ele>231.39</ele><time>2021-12-01T11:39:34Z</time></trkpt><trkpt lat="52.0536741056" lon="-1.8225350417"><ele>228.07</ele><time>2021-12-01T11:39:47Z</time></trkpt><trkpt lat="52.0537825674" lon="-1.8223432638"><ele>224.97</ele><time>2021-12-01T11:40:00Z</time></trkpt><trkpt lat="52.0538638718" lon="-1.8222129252"><ele>221.93</ele><time>2021-12-01T11:40:14Z</time></trkpt><trkpt lat="52.0539218746" lon="-1.8220984284"><ele>220.09</ele><time>2021-12-01T11:40:38Z</time></trkpt><trkpt lat="52.0539601799" lon="-1.8219690118"><ele>218.60</ele><time>2021-12-01T11:40:51Z</time></trkpt><trkpt lat="52.0540301688" lon="-1.8218260165"><ele>216.35</ele><time>2021-12-01T11:41:17Z</time></trkpt><trkpt lat="52.0541464258" lon="-1.8216494098"><ele>214.11</ele><time>2021-12-01T11:41:39Z</time></trkpt><trkpt lat="52.0542066917" lon="-1.8214996252"><ele>211.98</ele><time>2021-12-01T11:42:06Z</time></trkpt><trkpt lat="52.0542864874" lon="-1.8214217573"><ele>211.55</ele><time>2021-12-01T11:42:29Z</time></trkpt><trkpt lat="52.0543149859" lon="-1.8213262875"><ele>209.49</ele><time>2021-12-01T11:42:49Z</time></trkpt><trkpt lat="52.0543786045" lon="-1.8211829569"><ele>207.73</ele><time>2021-12-01T11:43:11Z</time></trkpt><trkpt lat="52.0544567239" lon="-1.8210313283"><ele>205.52</ele><time>2021-12-01T11:43:32Z</time></trkpt><trkpt lat="52.0545661077" lon="-1.8208887521"><ele>203.14</ele><time>2021-12-01T11:43:55Z</time></trkpt><trkpt lat="52.0546612423" lon="-1.8207481038"><ele>200.93</ele><time>2021-12-01T11:44:17Z</time></trkpt><trkpt lat="52.0547487494" lon="-1.8206243031"><ele>199.26</ele><time>2021-12-01T11:44:37Z</time></trkpt><trkpt lat="52.0548155531" lon="-1.8205640372"><ele>198.31</ele><time>2021-12-01T11:44:59Z</time></trkpt><trkpt lat="52.0548204146" lon="-1.8205119018"><ele>198.19</ele><time>2021-12-01T11:45:26Z</time></trkpt><trkpt lat="52.0548560377" lon="-1.8203827366"><ele>196.50</ele><time>2021-12-01T11:45:49Z</time></trkpt><trkpt lat="52.0548733044" lon="-1.8203399889"><ele>195.74</ele><time>2021-12-01T11:46:10Z</time></trkpt><trkpt lat="52.0548472367" lon="-1.8203860056"><ele>196.18</ele><time>2021-12-01T11:46:30Z</time></trkpt><trkpt lat="52.0548043214" lon="-1.8204862531"><ele>195.70</ele><time>2021-12-01T11:46:51Z</time></trkpt><trkpt lat="52.0549206622" lon="-1.8204072118"><ele>196.57</ele><time>2021-12-01T11:47:09Z</time></trkpt><trkpt lat="52.0550129469" lon="-1.8202554993"><ele>193.53</ele><time>2021-12-01T11:47:25Z</time></trkpt><trkpt lat="52.0550467260" lon="-1.8201891147"><ele>190.51</ele><time>2021-12-01T11:47:46Z</time></trkpt><trkpt lat="52.0550551917" lon="-1.8201469537"><ele>190.20</ele><time>2021-12-01T11:48:07Z</time></trkpt><trkpt lat="52.0550847799" lon="-1.8200934771"><ele>189.57</ele><time>2021-12-01T11:48:29Z</time></trkpt><trkpt lat="52.0552411024" lon="-1.8198042177"><ele>186.61</ele><time>2021-12-01T11:48:48Z</time></trkpt><trkpt lat="52.0553802419" lon="-1.8195438758"><ele>183.66</ele><time>2021-12-01T11:49:06Z</time></trkpt><trkpt lat="52.0554995164" lon="-1.8193469848"><ele>181.56</ele><time>2021-12-01T11:49:27Z</time></trkpt><trkpt lat="52.0556011889" lon="-1.8192442227"><ele>180.01</ele><time>2021-12-01T11:49:47Z</time></trkpt><trkpt lat="52.0557232294" lon="-1.8190702982"><ele>177.38</ele><time>2021-12-01T11:50:11Z</time></trkpt><trkpt lat="52.0558650512" lon="-1.8189615011"><ele>175.35</ele><time>2021-12-01T11:50:36Z</time></trkpt><trkpt lat="52.0560383052" lon="-1.8188857287"><ele>173.63</ele><time>2021-12-01T11:50:59Z</time></trkpt><trkpt lat="52.0561279915" lon="-1.8188521173"><ele>172.96</ele><time>2021-12-01T11:51:21Z</time></trkpt><trkpt lat="52.0562095474" lon="-1.8188614212"><ele>172.16</ele><time>2021-12-01T11:51:52Z</time></trkpt><trkpt lat="52.0563074481" lon="-1.8189102039"><ele>170.29</ele><time>2021-12-01T11:52:15Z</time></trkpt><trkpt lat="52.0564527903" lon="-1.8189375289"><ele>169.84</ele><time>2021-12-01T11:52:37Z</time></trkpt><trkpt lat="52.0565279759" lon="-1.8189552147"><ele>167.46</ele><time>2021-12-01T11:52:58Z</time></trkpt><trkpt lat="52.0565613359" lon="-1.8189597409"><ele>167.92</ele><time>2021-12-01T11:53:11Z</time></trkpt><trkpt lat="52.0566512737" lon="-1.8189725652"><ele>167.60</ele><time>2021-12-01T11:53:32Z</time></trkpt><trkpt lat="52.0567252859" lon="-1.8189835455"><ele>166.81</ele><time>2021-12-01T11:53:50Z</time></trkpt><trkpt lat="52.0567029063" lon="-1.8190961145"><ele>166.89</ele><time>2021-12-01T11:54:13Z</time></trkpt><trkpt lat="52.0566729829" lon="-1.8192138802"><ele>167.96</ele><time>2021-12-01T11:54:34Z</time></trkpt><trkpt lat="52.0566233620" lon="-1.8194506690"><ele>168.87</ele><time>2021-12-01T11:54:54Z</time></trkpt><trkpt lat="52.0565876551" lon="-1.8196741305"><ele>169.73</ele><time>2021-12-01T11:55:13Z</time></trkpt><trkpt lat="52.0565352682" lon="-1.8199397530"><ele>170.37</ele><time>2021-12-01T11:55:34Z</time></trkpt><trkpt lat="52.0564979687" lon="-1.8201311119"><ele>170.42</ele><time>2021-12-01T11:55:50Z</time></trkpt><trkpt lat="52.0564337634" lon="-1.8203877658"><ele>171.47</ele><time>2021-12-01T11:56:11Z</time></trkpt><trkpt lat="52.0564179216" lon="-1.8205494527"><ele>172.03</ele><time>2021-12-01T11:56:29Z</time></trkpt><trkpt lat="52.0564066060" lon="-1.8206983991"><ele>172.66</ele><time>2021-12-01T11:56:45Z</time></trkpt><trkpt lat="52.0563835558" lon="-1.8207767699"><ele>173.78</ele><time>2021-12-01T11:57:03Z</time></trkpt><trkpt lat="52.0563657861" lon="-1.8209009059"><ele>174.37</ele><time>2021-12-01T11:57:23Z</time></trkpt><trkpt lat="52.0563062746" lon="-1.8211063463"><ele>175.69</ele><time>2021-12-01T11:57:43Z</time></trkpt><trkpt lat="52.0562368724" lon="-1.8212560471"><ele>176.50</ele><time>2021-12-01T11:58:01Z</time></trkpt><trkpt lat="52.0561990701" lon="-1.8213702925"><ele>176.87</ele><time>2021-12-01T11:58:18Z</time></trkpt><trkpt lat="52.0561874192" lon="-1.8214773294"><ele>177.08</ele><time>2021-12-01T11:58:33Z</time></trkpt><trkpt lat="52.0561676379" lon="-1.8215929996"><ele>177.84</ele><time>2021-12-01T11:58:52Z</time></trkpt><trkpt lat="52.0561533887" lon="-1.8216795847"><ele>178.36</ele><time>2021-12-01T11:59:08Z</time></trkpt><trkpt lat="52.0561323501" lon="-1.8218651600"><ele>178.75</ele><time>2021-12-01T11:59:25Z</time></trkpt><trkpt lat="52.0561208669" lon="-1.8221025355"><ele>179.80</ele><time>2021-12-01T11:59:44Z</time></trkpt><trkpt lat="52.0561170951" lon="-1.8223316129"><ele>180.34</ele><time>2021-12-01T12:00:04Z</time></trkpt><trkpt lat="52.0560996607" lon="-1.8225522246"><ele>180.05</ele><time>2021-12-01T12:00:23Z</time></trkpt><trkpt lat="52.0561010018" lon="-1.8227107264"><ele>179.97</ele><time>2021-12-01T12:00:41Z</time></trkpt><trkpt lat="52.0560785383" lon="-1.8228334375"><ele>180.22</ele><time>2021-12-01T12:00:55Z</time></trkpt><trkpt lat="52.0560535602" lon="-1.8230439071"><ele>179.27</ele><time>2021-12-01T12:01:14Z</time></trkpt><trkpt lat="52.0560534764" lon="-1.8232417200"><ele>178.19</ele><time>2021-12-01T12:01:34Z</time></trkpt><trkpt lat="52.0560443401" lon="-1.8234379403"><ele>177.16</ele><time>2021-12-01T12:01:52Z</time></trkpt><trkpt lat="52.0560434181" lon="-1.8236128706"><ele>176.29</ele><time>2021-12-01T12:02:08Z</time></trkpt><trkpt lat="52.0560278278" lon="-1.8237442151"><ele>176.36</ele><time>2021-12-01T12:02:27Z</time></trkpt><trkpt lat="52.0560195297" lon="-1.8237522617"><ele>177.66</ele><time>2021-12-01T12:03:03Z</time></trkpt><trkpt lat="52.0560147520" lon="-1.8239043094"><ele>177.66</ele><time>2021-12-01T12:03:19Z</time></trkpt><trkpt lat="52.0560147520" lon="-1.8239518348"><ele>177.66</ele><time>2021-12-01T12:03:22Z</time></trkpt><trkpt lat="52.0560203679" lon="-1.8240785692"><ele>175.49</ele><time>2021-12-01T12:03:28Z</time></trkpt><trkpt lat="52.0560360420" lon="-1.8243577704"><ele>174.80</ele><time>2021-12-01T12:03:46Z</time></trkpt><trkpt lat="52.0560893510" lon="-1.8244090676"><ele>174.09</ele><time>2021-12-01T12:04:03Z</time></trkpt><trkpt lat="52.0560907759" lon="-1.8244731054"><ele>173.91</ele><time>2021-12-01T12:04:21Z</time></trkpt><trkpt lat="52.0560996607" lon="-1.8245104048"><ele>174.68</ele><time>2021-12-01T12:04:43Z</time></trkpt><trkpt lat="52.0561137423" lon="-1.8245037831"><ele>174.66</ele><time>2021-12-01T12:05:04Z</time></trkpt><trkpt lat="52.0561234653" lon="-1.8245611992"><ele>175.40</ele><time>2021-12-01T12:05:27Z</time></trkpt><trkpt lat="52.0561657101" lon="-1.8246487062"><ele>174.94</ele><time>2021-12-01T12:05:46Z</time></trkpt><trkpt lat="52.0562338550" lon="-1.8247781228"><ele>174.61</ele><time>2021-12-01T12:06:02Z</time></trkpt><trkpt lat="52.0563384611" lon="-1.8249210343"><ele>174.61</ele><time>2021-12-01T12:06:21Z</time></trkpt><trkpt lat="52.0564430673" lon="-1.8250856549"><ele>174.61</ele><time>2021-12-01T12:06:43Z</time></trkpt><trkpt lat="52.0565477572" lon="-1.8252369482"><ele>174.61</ele><time>2021-12-01T12:07:03Z</time></trkpt><trkpt lat="52.0566288102" lon="-1.8253991380"><ele>174.61</ele><time>2021-12-01T12:07:22Z</time></trkpt><trkpt lat="52.0566828735" lon="-1.8255450670"><ele>174.61</ele><time>2021-12-01T12:07:45Z</time></trkpt><trkpt lat="52.0566915069" lon="-1.8255882338"><ele>174.61</ele><time>2021-12-01T12:08:18Z</time></trkpt><trkpt lat="52.0566921774" lon="-1.8255715538"><ele>174.61</ele><time>2021-12-01T12:08:48Z</time></trkpt><trkpt lat="52.0566780958" lon="-1.8255812768"><ele>174.61</ele><time>2021-12-01T12:09:13Z</time></trkpt><trkpt lat="52.0567173231" lon="-1.8256065063"><ele>174.61</ele><time>2021-12-01T12:09:24Z</time></trkpt><trkpt lat="52.0567451511" lon="-1.8256433867"><ele>174.61</ele><time>2021-12-01T12:09:27Z</time></trkpt><trkpt lat="52.0568552893" lon="-1.8257131241"><ele>173.51</ele><time>2021-12-01T12:09:46Z</time></trkpt><trkpt lat="52.0568799321" lon="-1.8257345818"><ele>171.29</ele><time>2021-12-01T12:09:57Z</time></trkpt><trkpt lat="52.0569088496" lon="-1.8257611524"><ele>170.20</ele><time>2021-12-01T12:10:00Z</time></trkpt><trkpt lat="52.0569270384" lon="-1.8257856276"><ele>169.45</ele><time>2021-12-01T12:10:02Z</time></trkpt><trkpt lat="52.0570844505" lon="-1.8259230070"><ele>169.28</ele><time>2021-12-01T12:10:17Z</time></trkpt><trkpt lat="52.0571161341" lon="-1.8259366695"><ele>168.47</ele><time>2021-12-01T12:10:20Z</time></trkpt><trkpt lat="52.0571426209" lon="-1.8259239290"><ele>167.11</ele><time>2021-12-01T12:10:23Z</time></trkpt><trkpt lat="52.0572526753" lon="-1.8259758130"><ele>165.02</ele><time>2021-12-01T12:10:34Z</time></trkpt><trkpt lat="52.0573659148" lon="-1.8261733744"><ele>163.26</ele><time>2021-12-01T12:10:51Z</time></trkpt><trkpt lat="52.0573827624" lon="-1.8263566028"><ele>163.10</ele><time>2021-12-01T12:11:04Z</time></trkpt><trkpt lat="52.0573413558" lon="-1.8266358040"><ele>162.43</ele><time>2021-12-01T12:11:23Z</time></trkpt><trkpt lat="52.0573016256" lon="-1.8268873449"><ele>162.87</ele><time>2021-12-01T12:11:44Z</time></trkpt><trkpt lat="52.0572989434" lon="-1.8268898595"><ele>163.91</ele><time>2021-12-01T12:12:10Z</time></trkpt><trkpt lat="52.0572843589" lon="-1.8268292584"><ele>163.66</ele><time>2021-12-01T12:12:39Z</time></trkpt><trkpt lat="52.0572981052" lon="-1.8268028554"><ele>163.66</ele><time>2021-12-01T12:12:56Z</time></trkpt><trkpt lat="52.0573297050" lon="-1.8266789708"><ele>163.34</ele><time>2021-12-01T12:13:13Z</time></trkpt><trkpt lat="52.0573634841" lon="-1.8264762126"><ele>163.10</ele><time>2021-12-01T12:13:29Z</time></trkpt><trkpt lat="52.0573892165" lon="-1.8262543436"><ele>163.11</ele><time>2021-12-01T12:13:47Z</time></trkpt><trkpt lat="52.0573534258" lon="-1.8260613922"><ele>163.19</ele><time>2021-12-01T12:14:05Z</time></trkpt><trkpt lat="52.0572014619" lon="-1.8259564508"><ele>164.37</ele><time>2021-12-01T12:14:27Z</time></trkpt><trkpt lat="52.0570712909" lon="-1.8258774094"><ele>166.96</ele><time>2021-12-01T12:14:48Z</time></trkpt><trkpt lat="52.0569654275" lon="-1.8258034810"><ele>169.16</ele><time>2021-12-01T12:15:07Z</time></trkpt><trkpt lat="52.0568212587" lon="-1.8256774172"><ele>170.93</ele><time>2021-12-01T12:15:29Z</time></trkpt><trkpt lat="52.0567211788" lon="-1.8256359268"><ele>172.86</ele><time>2021-12-01T12:15:45Z</time></trkpt><trkpt lat="52.0566620026" lon="-1.8256860506"><ele>174.30</ele><time>2021-12-01T12:16:02Z</time></trkpt><trkpt lat="52.0566364378" lon="-1.8257166445"><ele>175.05</ele><time>2021-12-01T12:16:29Z</time></trkpt><trkpt lat="52.0565605816" lon="-1.8258260284"><ele>175.61</ele><time>2021-12-01T12:16:45Z</time></trkpt><trkpt lat="52.0565497689" lon="-1.8258406967"><ele>176.62</ele><time>2021-12-01T12:17:12Z</time></trkpt><trkpt lat="52.0565603301" lon="-1.8259637430"><ele>175.70</ele><time>2021-12-01T12:17:35Z</time></trkpt><trkpt lat="52.0565655269" lon="-1.8261523359"><ele>176.60</ele><time>2021-12-01T12:17:50Z</time></trkpt><trkpt lat="52.0565414708" lon="-1.8262707721"><ele>177.41</ele><time>2021-12-01T12:18:09Z</time></trkpt><trkpt lat="52.0565051772" lon="-1.8264144380"><ele>177.68</ele><time>2021-12-01T12:18:33Z</time></trkpt><trkpt lat="52.0564375352" lon="-1.8267100677"><ele>178.11</ele><time>2021-12-01T12:18:54Z</time></trkpt><trkpt lat="52.0564273093" lon="-1.8267757818"><ele>178.11</ele><time>2021-12-01T12:18:58Z</time></trkpt><trkpt lat="52.0563775208" lon="-1.8270306755"><ele>177.41</ele><time>2021-12-01T12:19:15Z</time></trkpt><trkpt lat="52.0563301630" lon="-1.8272927776"><ele>178.03</ele><time>2021-12-01T12:19:33Z</time></trkpt><trkpt lat="52.0562665444" lon="-1.8275878206"><ele>177.61</ele><time>2021-12-01T12:19:53Z</time></trkpt><trkpt lat="52.0562112238" lon="-1.8278611545"><ele>177.25</ele><time>2021-12-01T12:20:12Z</time></trkpt><trkpt lat="52.0561555680" lon="-1.8281519227"><ele>176.88</ele><time>2021-12-01T12:20:31Z</time></trkpt><trkpt lat="52.0561412349" lon="-1.8283228297"><ele>176.29</ele><time>2021-12-01T12:20:45Z</time></trkpt><trkpt lat="52.0561135747" lon="-1.8284054752"><ele>176.02</ele><time>2021-12-01T12:20:51Z</time></trkpt><trkpt lat="52.0560986549" lon="-1.8284676690"><ele>176.48</ele><time>2021-12-01T12:21:07Z</time></trkpt><trkpt lat="52.0560709946" lon="-1.8285332993"><ele>176.48</ele><time>2021-12-01T12:21:27Z</time></trkpt><trkpt lat="52.0560129918" lon="-1.8287708424"><ele>176.48</ele><time>2021-12-01T12:21:48Z</time></trkpt><trkpt lat="52.0559285022" lon="-1.8290892709"><ele>176.48</ele><time>2021-12-01T12:22:14Z</time></trkpt><trkpt lat="52.0558516402" lon="-1.8293182645"><ele>178.31</ele><time>2021-12-01T12:22:33Z</time></trkpt><trkpt lat="52.0559634548" lon="-1.8294619303"><ele>177.45</ele><time>2021-12-01T12:22:51Z</time></trkpt><trkpt lat="52.0560372155" lon="-1.8295656145"><ele>175.27</ele><time>2021-12-01T12:23:10Z</time></trkpt><trkpt lat="52.0561258122" lon="-1.8296786863"><ele>173.41</ele><time>2021-12-01T12:23:30Z</time></trkpt><trkpt lat="52.0560989901" lon="-1.8297876511"><ele>173.48</ele><time>2021-12-01T12:23:39Z</time></trkpt><trkpt lat="52.0560471900" lon="-1.8300450593"><ele>172.75</ele><time>2021-12-01T12:23:56Z</time></trkpt><trkpt lat="52.0560046937" lon="-1.8303300440"><ele>171.23</ele><time>2021-12-01T12:24:15Z</time></trkpt><trkpt lat="52.0559979882" lon="-1.8305438664"><ele>169.28</ele><time>2021-12-01T12:24:35Z</time></trkpt><trkpt lat="52.0559764467" lon="-1.8306402583"><ele>169.02</ele><time>2021-12-01T12:24:54Z</time></trkpt><trkpt lat="52.0559610240" lon="-1.8306524958"><ele>169.90</ele><time>2021-12-01T12:25:15Z</time></trkpt><trkpt lat="52.0559653826" lon="-1.8306411803"><ele>169.69</ele><time>2021-12-01T12:25:45Z</time></trkpt><trkpt lat="52.0560902730" lon="-1.8306597043"><ele>169.69</ele><time>2021-12-01T12:26:08Z</time></trkpt><trkpt lat="52.0562487748" lon="-1.8307151087"><ele>169.69</ele><time>2021-12-01T12:26:29Z</time></trkpt><trkpt lat="52.0562964678" lon="-1.8307264242"><ele>166.51</ele><time>2021-12-01T12:26:34Z</time></trkpt><trkpt lat="52.0564237889" lon="-1.8308010232"><ele>164.38</ele><time>2021-12-01T12:26:49Z</time></trkpt><trkpt lat="52.0564445760" lon="-1.8309787195"><ele>163.73</ele><time>2021-12-01T12:27:01Z</time></trkpt><trkpt lat="52.0563716535" lon="-1.8311937153"><ele>164.00</ele><time>2021-12-01T12:27:17Z</time></trkpt><trkpt lat="52.0562724117" lon="-1.8314009998"><ele>165.05</ele><time>2021-12-01T12:27:34Z</time></trkpt><trkpt lat="52.0561796241" lon="-1.8316495232"><ele>165.92</ele><time>2021-12-01T12:27:52Z</time></trkpt><trkpt lat="52.0561687276" lon="-1.8317448255"><ele>166.66</ele><time>2021-12-01T12:28:08Z</time></trkpt><trkpt lat="52.0561516285" lon="-1.8319353461"><ele>166.95</ele><time>2021-12-01T12:28:22Z</time></trkpt><trkpt lat="52.0561450068" lon="-1.8319928460"><ele>166.97</ele><time>2021-12-01T12:28:25Z</time></trkpt><trkpt lat="52.0561113115" lon="-1.8323177285"><ele>166.48</ele><time>2021-12-01T12:28:43Z</time></trkpt><trkpt lat="52.0561016724" lon="-1.8325480632"><ele>165.31</ele><time>2021-12-01T12:28:59Z</time></trkpt><trkpt lat="52.0561093837" lon="-1.8327058945"><ele>164.75</ele><time>2021-12-01T12:29:17Z</time></trkpt><trkpt lat="52.0560938772" lon="-1.8328907993"><ele>163.26</ele><time>2021-12-01T12:29:34Z</time></trkpt><trkpt lat="52.0560461842" lon="-1.8330168631"><ele>163.62</ele><time>2021-12-01T12:29:53Z</time></trkpt><trkpt lat="52.0560011733" lon="-1.8331850879"><ele>164.25</ele><time>2021-12-01T12:30:06Z</time></trkpt><trkpt lat="52.0559479482" lon="-1.8333003391"><ele>164.43</ele><time>2021-12-01T12:30:15Z</time></trkpt><trkpt lat="52.0558690745" lon="-1.8335205317"><ele>165.42</ele><time>2021-12-01T12:30:32Z</time></trkpt><trkpt lat="52.0557864290" lon="-1.8336672150"><ele>164.85</ele><time>2021-12-01T12:30:47Z</time></trkpt><trkpt lat="52.0556713454" lon="-1.8338726554"><ele>165.26</ele><time>2021-12-01T12:31:06Z</time></trkpt><trkpt lat="52.0556388237" lon="-1.8339553010"><ele>165.35</ele><time>2021-12-01T12:31:12Z</time></trkpt><trkpt lat="52.0556153543" lon="-1.8339988030"><ele>164.86</ele><time>2021-12-01T12:31:16Z</time></trkpt><trkpt lat="52.0555226505" lon="-1.8341173232"><ele>164.57</ele><time>2021-12-01T12:31:31Z</time></trkpt><trkpt lat="52.0554401726" lon="-1.8342891522"><ele>164.36</ele><time>2021-12-01T12:31:46Z</time></trkpt><trkpt lat="52.0553579461" lon="-1.8344690278"><ele>164.41</ele><time>2021-12-01T12:32:02Z</time></trkpt><trkpt lat="52.0552602969" lon="-1.8346847780"><ele>164.00</ele><time>2021-12-01T12:32:20Z</time></trkpt><trkpt lat="52.0552281104" lon="-1.8347536772"><ele>163.75</ele><time>2021-12-01T12:32:36Z</time></trkpt><trkpt lat="52.0551621448" lon="-1.8348968402"><ele>163.42</ele><time>2021-12-01T12:32:53Z</time></trkpt><trkpt lat="52.0550919883" lon="-1.8351209722"><ele>162.75</ele><time>2021-12-01T12:33:10Z</time></trkpt><trkpt lat="52.0550569519" lon="-1.8352052942"><ele>161.70</ele><time>2021-12-01T12:33:16Z</time></trkpt><trkpt lat="52.0550007094" lon="-1.8353525642"><ele>161.00</ele><time>2021-12-01T12:33:29Z</time></trkpt><trkpt lat="52.0550023019" lon="-1.8354052026"><ele>160.96</ele><time>2021-12-01T12:33:47Z</time></trkpt><trkpt lat="52.0550491568" lon="-1.8355165981"><ele>160.04</ele><time>2021-12-01T12:34:06Z</time></trkpt><trkpt lat="52.0550965145" lon="-1.8356545642"><ele>159.25</ele><time>2021-12-01T12:34:23Z</time></trkpt><trkpt lat="52.0552124362" lon="-1.8358265609"><ele>157.61</ele><time>2021-12-01T12:34:38Z</time></trkpt><trkpt lat="52.0553238317" lon="-1.8360326719"><ele>155.76</ele><time>2021-12-01T12:34:56Z</time></trkpt><trkpt lat="52.0554573555" lon="-1.8362474162"><ele>154.16</ele><time>2021-12-01T12:35:16Z</time></trkpt><trkpt lat="52.0555849280" lon="-1.8364779186"><ele>152.97</ele><time>2021-12-01T12:35:35Z</time></trkpt><trkpt lat="52.0556715131" lon="-1.8366133701"><ele>152.18</ele><time>2021-12-01T12:35:53Z</time></trkpt><trkpt lat="52.0556925517" lon="-1.8366557825"><ele>151.43</ele><time>2021-12-01T12:36:16Z</time></trkpt><trkpt lat="52.0557077229" lon="-1.8368361611"><ele>150.78</ele><time>2021-12-01T12:36:38Z</time></trkpt><trkpt lat="52.0557446871" lon="-1.8370379135"><ele>150.56</ele><time>2021-12-01T12:36:57Z</time></trkpt><trkpt lat="52.0557832438" lon="-1.8372141011"><ele>150.28</ele><time>2021-12-01T12:37:10Z</time></trkpt><trkpt lat="52.0558041986" lon="-1.8372362293"><ele>150.22</ele><time>2021-12-01T12:37:12Z</time></trkpt><trkpt lat="52.0559096429" lon="-1.8374565057"><ele>149.99</ele><time>2021-12-01T12:37:30Z</time></trkpt><trkpt lat="52.0559141692" lon="-1.8376544025"><ele>149.66</ele><time>2021-12-01T12:37:44Z</time></trkpt><trkpt lat="52.0559684001" lon="-1.8378429115"><ele>149.42</ele><time>2021-12-01T12:37:59Z</time></trkpt><trkpt lat="52.0559961442" lon="-1.8380324263"><ele>148.37</ele><time>2021-12-01T12:38:17Z</time></trkpt><trkpt lat="52.0560296718" lon="-1.8381739128"><ele>146.85</ele><time>2021-12-01T12:38:36Z</time></trkpt><trkpt lat="52.0560332760" lon="-1.8381881621"><ele>146.87</ele><time>2021-12-01T12:38:37Z</time></trkpt><trkpt lat="52.0560333598" lon="-1.8382499367"><ele>146.81</ele><time>2021-12-01T12:38:40Z</time></trkpt><trkpt lat="52.0560522191" lon="-1.8385570496"><ele>146.10</ele><time>2021-12-01T12:38:58Z</time></trkpt><trkpt lat="52.0560959727" lon="-1.8387833610"><ele>146.35</ele><time>2021-12-01T12:39:14Z</time></trkpt><trkpt lat="52.0561279077" lon="-1.8390814215"><ele>145.76</ele><time>2021-12-01T12:39:33Z</time></trkpt><trkpt lat="52.0561593398" lon="-1.8394094054"><ele>145.17</ele><time>2021-12-01T12:39:54Z</time></trkpt><trkpt lat="52.0561922807" lon="-1.8397373054"><ele>144.40</ele><time>2021-12-01T12:40:15Z</time></trkpt><trkpt lat="52.0562222041" lon="-1.8400381319"><ele>143.36</ele><time>2021-12-01T12:40:35Z</time></trkpt><trkpt lat="52.0562420692" lon="-1.8403467536"><ele>142.53</ele><time>2021-12-01T12:40:55Z</time></trkpt><trkpt lat="52.0562695619" lon="-1.8406840414"><ele>142.31</ele><time>2021-12-01T12:41:17Z</time></trkpt><trkpt lat="52.0562812965" lon="-1.8407925870"><ele>142.43</ele><time>2021-12-01T12:41:32Z</time></trkpt><trkpt lat="52.0563002396" lon="-1.8409898132"><ele>142.13</ele><time>2021-12-01T12:41:47Z</time></trkpt><trkpt lat="52.0562987309" lon="-1.8410706148"><ele>142.34</ele><time>2021-12-01T12:41:52Z</time></trkpt><trkpt lat="52.0563048497" lon="-1.8412264343"><ele>142.13</ele><time>2021-12-01T12:42:08Z</time></trkpt><trkpt lat="52.0563268103" lon="-1.8414803222"><ele>142.25</ele><time>2021-12-01T12:42:24Z</time></trkpt><trkpt lat="52.0563530456" lon="-1.8417145126"><ele>142.23</ele><time>2021-12-01T12:42:41Z</time></trkpt><trkpt lat="52.0563674625" lon="-1.8418637104"><ele>141.48</ele><time>2021-12-01T12:43:02Z</time></trkpt><trkpt lat="52.0563605055" lon="-1.8420322705"><ele>141.39</ele><time>2021-12-01T12:43:14Z</time></trkpt><trkpt lat="52.0562957134" lon="-1.8421916943"><ele>140.91</ele><time>2021-12-01T12:43:24Z</time></trkpt><trkpt lat="52.0561841503" lon="-1.8424320035"><ele>140.69</ele><time>2021-12-01T12:43:43Z</time></trkpt><trkpt lat="52.0561010856" lon="-1.8426371086"><ele>140.22</ele><time>2021-12-01T12:44:00Z</time></trkpt><trkpt lat="52.0560171828" lon="-1.8427351769"><ele>140.29</ele><time>2021-12-01T12:44:18Z</time></trkpt><trkpt lat="52.0559665561" lon="-1.8427598197"><ele>140.58</ele><time>2021-12-01T12:44:40Z</time></trkpt><trkpt lat="52.0559781231" lon="-1.8428369332"><ele>140.62</ele><time>2021-12-01T12:45:02Z</time></trkpt><trkpt lat="52.0560196973" lon="-1.8429313973"><ele>140.43</ele><time>2021-12-01T12:45:21Z</time></trkpt><trkpt lat="52.0560075436" lon="-1.8432147056"><ele>140.31</ele><time>2021-12-01T12:45:40Z</time></trkpt><trkpt lat="52.0560032688" lon="-1.8432396837"><ele>139.88</ele><time>2021-12-01T12:46:08Z</time></trkpt><trkpt lat="52.0559507143" lon="-1.8433306273"><ele>139.11</ele><time>2021-12-01T12:46:25Z</time></trkpt><trkpt lat="52.0559437573" lon="-1.8433562759"><ele>138.98</ele><time>2021-12-01T12:46:27Z</time></trkpt><trkpt lat="52.0558974054" lon="-1.8435641471"><ele>139.77</ele><time>2021-12-01T12:46:40Z</time></trkpt><trkpt lat="52.0558086410" lon="-1.8439032789"><ele>140.53</ele><time>2021-12-01T12:47:03Z</time></trkpt><trkpt lat="52.0557689946" lon="-1.8441267405"><ele>142.14</ele><time>2021-12-01T12:47:19Z</time></trkpt><trkpt lat="52.0557263307" lon="-1.8443372101"><ele>142.68</ele><time>2021-12-01T12:47:35Z</time></trkpt><trkpt lat="52.0556617901" lon="-1.8446307443"><ele>143.15</ele><time>2021-12-01T12:47:55Z</time></trkpt><trkpt lat="52.0556028653" lon="-1.8448147271"><ele>144.00</ele><time>2021-12-01T12:48:10Z</time></trkpt><trkpt lat="52.0555511490" lon="-1.8450645916"><ele>144.70</ele><time>2021-12-01T12:48:27Z</time></trkpt><trkpt lat="52.0554876979" lon="-1.8452536035"><ele>145.09</ele><time>2021-12-01T12:48:46Z</time></trkpt><trkpt lat="52.0554410946" lon="-1.8453117739"><ele>145.11</ele><time>2021-12-01T12:49:01Z</time></trkpt><trkpt lat="52.0553482231" lon="-1.8455344811"><ele>145.63</ele><time>2021-12-01T12:49:17Z</time></trkpt><trkpt lat="52.0552817546" lon="-1.8456384167"><ele>145.68</ele><time>2021-12-01T12:49:30Z</time></trkpt><trkpt lat="52.0552457124" lon="-1.8457391672"><ele>145.55</ele><time>2021-12-01T12:49:45Z</time></trkpt><trkpt lat="52.0552517474" lon="-1.8458257522"><ele>144.77</ele><time>2021-12-01T12:50:03Z</time></trkpt><trkpt lat="52.0552123524" lon="-1.8460221402"><ele>144.17</ele><time>2021-12-01T12:50:20Z</time></trkpt><trkpt lat="52.0552039705" lon="-1.8460734375"><ele>143.99</ele><time>2021-12-01T12:50:23Z</time></trkpt><trkpt lat="52.0551250130" lon="-1.8463284150"><ele>143.81</ele><time>2021-12-01T12:50:40Z</time></trkpt><trkpt lat="52.0550400205" lon="-1.8465662096"><ele>143.17</ele><time>2021-12-01T12:50:57Z</time></trkpt><trkpt lat="52.0549915731" lon="-1.8467175867"><ele>142.92</ele><time>2021-12-01T12:51:13Z</time></trkpt><trkpt lat="52.0549657568" lon="-1.8467628490"><ele>142.99</ele><time>2021-12-01T12:51:17Z</time></trkpt><trkpt lat="52.0549104363" lon="-1.8469190877"><ele>142.73</ele><time>2021-12-01T12:51:33Z</time></trkpt><trkpt lat="52.0548106916" lon="-1.8470801879"><ele>142.45</ele><time>2021-12-01T12:51:50Z</time></trkpt><trkpt lat="52.0547998790" lon="-1.8471058365"><ele>142.36</ele><time>2021-12-01T12:51:52Z</time></trkpt><trkpt lat="52.0547200833" lon="-1.8472451437"><ele>141.69</ele><time>2021-12-01T12:52:09Z</time></trkpt><trkpt lat="52.0546138845" lon="-1.8473410327"><ele>141.52</ele><time>2021-12-01T12:52:26Z</time></trkpt><trkpt lat="52.0546287205" lon="-1.8471564632"><ele>142.64</ele><time>2021-12-01T12:52:41Z</time></trkpt><trkpt lat="52.0546785090" lon="-1.8469657749"><ele>143.28</ele><time>2021-12-01T12:52:54Z</time></trkpt><trkpt lat="52.0546428021" lon="-1.8469033297"><ele>144.40</ele><time>2021-12-01T12:53:10Z</time></trkpt><trkpt lat="52.0546441432" lon="-1.8468988873"><ele>144.43</ele><time>2021-12-01T12:53:13Z</time></trkpt></trkseg></trk></gpx>